Central Sierra Snow Lab Weather observations

Data are for 10 minute period ending at time listed.
 Day   Time    Incoming  Reflected   Ave.   Ave.    Ave.    Vector  Max.    Ave.    Total    Snow   
  of    of      Solar     Solar      Air    Rel.    Wind    Wind    Wind   Baro.   Precip.   Depth  
Year   Day     Radiation Radiation   Temp.  Humid.  Speed   Dir.    Gust   Press.                   
2019   (PST)    Kw/m2     Kw/m2       F       %      mph     deg.    mph     mb.     in.      in.   
----------------------------------------------------------------------------------------------------
 294    5:20    0.000     999.000     38.9     65     1.6     131     3.5   797.20   -2.96   164.80  
 294    5:30    0.000     999.000     38.3     67     1.3     111     3.5   797.20   -2.96   164.80  
 294    5:40    0.000     999.000     37.6     68     1.7     320     4.0   797.10   -2.96   164.80  
 294    5:50    0.000     999.000     38.8     65     1.9     180     4.0   797.10   -2.96   164.80  
 294    6:00    0.000     999.000     38.5     66     1.6     202     4.8   797.10   -2.96   164.80  
 294    6:10    0.000     999.000     38.5     65     1.7     205     4.2   797.10   -2.96   164.80  
 294    6:20    0.001     999.000     40.4     57     2.7     137    11.2   797.10   -2.96   154.20  
 294    6:30    0.003     999.000     40.7     57     2.1     212     5.3   797.20   -2.96   164.90  
 294    6:40    0.005     999.000     40.9     52     2.0     223     5.3   797.20   -2.96   164.90  
 294    6:50    0.007     999.000     41.7     51     2.0     222     5.7   797.30   -2.96   164.90  
 294    7:00    0.009     999.000     41.1     54     2.5     125     8.9   797.40   -2.96   164.90  
 294    7:10    0.011     999.000     41.0     55     2.2     260     6.4   797.60   -2.96   165.00  
 294    7:20    0.012     999.000     41.2     53     2.3     294     7.1   797.70   -2.96   164.90  
 294    7:30    0.014     999.000     43.3     44     2.7      80     9.3   797.80   -2.96   164.90  
 294    7:40    0.017     999.000     44.3     40     2.8      79     7.7   797.90   -2.96   164.80  
 294    7:50    0.027     999.000     45.0     38     3.1      87     8.9   798.00   -2.96   165.10  
 294    8:00    0.023     999.000     45.8     35     3.8      96    11.1   798.20   -2.96   165.30  
 294    8:10    0.023     999.000     46.3     34     2.7     119    11.4   798.30   -2.96   165.40  
 294    8:20    0.031     999.000     46.8     28     3.9     126    13.3   798.40   -2.96   165.00  
 294    8:30    0.062     999.000     47.2     29     4.3     105    11.6   798.30   -2.96   164.80  
 294    8:40    0.320     999.000     47.7     30     3.0     102    13.3   798.40   -2.96   164.80  
 294    8:50    0.402     999.000     48.9     33     2.5      78     8.6   798.40   -2.96   164.90  
 294    9:00    0.427     999.000     49.9     35     3.5     107    10.3   798.50   -2.96   164.90  
 294    9:10    0.452     999.000     50.3     36     3.5     101     9.1   798.50   -2.96   164.70  
 294    9:20    0.475     999.000     50.6     36     4.2     100    13.7   798.60   -2.96   164.40  
 294    9:30    0.500     999.000     50.8     36     4.3     106    10.3   798.70   -2.96   164.40  
 294    9:40    0.531     999.000     51.2     37     3.5     100    10.0   798.70   -2.96   164.40  
 294    9:50    0.563     999.000     52.2     36     2.7     125     8.4   798.70   -2.96   164.10  
 294   10:00    0.583     999.000     53.3     35     3.9     125    10.8   798.70   -2.96   163.90  
 294   10:10    0.592     999.000     54.2     34     4.2     120    11.9   798.80   -2.96   163.50  
 294   10:20    0.596     999.000     55.0     33     3.2     129     9.6   798.80   -2.96   163.50  
 294   10:30    0.607     999.000     55.2     33     2.9      83     8.0   798.90   -2.96   163.30  
 294   10:40    0.620     999.000     55.3     33     4.5      86    11.9   798.90   -2.96   162.40  
 294   10:50    0.632     999.000     56.2     32     2.4     148     6.4   798.90   -2.96   158.30  
 294   11:00    0.641     999.000     56.5     32     3.0     154     6.9   798.90   -2.96   48.20  
 294   11:10    0.650     999.000     56.7     32     3.0     134     9.4   798.90   -2.96   33.10  
 294   11:20    0.657     999.000     57.0     32     2.9     126     7.9   798.90   -2.96   -4.20  
 294   11:30    0.662     999.000     56.8     32     3.6      83     8.3   798.90   -2.96    0.10  
 294   11:40    0.665     999.000     57.3     32     2.6     118     6.5   798.90   -2.96   41.90  
 294   11:50    0.666     999.000     58.0     32     2.7      64     7.3   798.90   -2.96   -2.90  
 294   12:00    0.665     999.000     57.7     31     3.9      78     8.6   799.00   -2.96    4.70  
 294   12:10    0.660     999.000     58.4     31     2.3     119     7.2   799.00   -2.96   -4.10  
 294   12:20    0.651     999.000     58.7     31     2.5      67     8.2   799.00   -2.96   -4.40  
 294   12:30    0.645     999.000     58.5     31     2.8      75     7.5   799.00   -2.96   -4.20  
 294   12:40    0.640     999.000     59.1     30     2.4      37     6.7   799.00   -2.96   -4.20  
 294   12:50    0.624     999.000     59.7     29     2.2      35     5.8   799.00   -2.96   -4.10  
 294   13:00    0.610     999.000     59.5     30     3.1      93     7.5   798.90   -2.96   -4.10  
 294   13:10    0.590     999.000     60.0     28     2.6      35     6.3   798.80   -2.96   -3.90  
 294   13:20    0.576     999.000     59.7     27     3.0     120     6.6   798.80   -2.96   -4.00  
 294   13:30    0.574     999.000     59.8     28     2.7      74     6.4   798.80   -2.96   -4.00  
 294   13:40    0.558     999.000     60.6     28     3.0      16     6.1   798.80   -2.96   -4.00  
 294   13:50    0.529     999.000     60.2     27     3.0     117     7.3   798.80   -2.96   -3.90  
 294   14:00    0.511     999.000     60.4     26     3.1      68     8.9   798.80   -2.96   -3.90  
 294   14:10    0.491     999.000     60.9     22     2.8       4     7.1   798.80   -2.96   -3.80  
 294   14:20    0.462     999.000     60.7     20     2.5      22     6.7   799.00   -2.96   -3.80  
 294   14:30    0.368     999.000     61.0     23     1.6     353     3.6   799.10   -2.96   -3.70  
 294   14:40    0.124     999.000     60.3     23     2.3       4     6.0   799.10   -2.96   -3.40  
 294   14:50    0.160     999.000     60.3     25     2.1      36     6.5   799.20   -2.96   84.20  
 294   15:00    0.365     999.000     59.8     25     2.9      44     7.2   799.10   -2.96   163.50  
 294   15:10    0.132     999.000     59.8     26     2.8      64     9.7   799.10   -2.96   163.90  
 294   15:20    0.057     999.000     59.2     26     2.9      86     7.5   799.20   -2.96   164.40  
 294   15:30    0.156     999.000     59.3     26     2.2     112     6.1   799.30   -2.96   164.40  
 294   15:40    0.169     999.000     59.2     26     2.4      52     6.8   799.30   -2.96   164.40  
 294   15:50    0.059     999.000     58.9     26     2.2      48     7.5   799.30   -2.96   164.40  
 294   16:00    0.044     999.000     58.6     26     2.9      92     8.6   799.30   -2.96   164.40  
 294   16:10    0.127     999.000     58.7     26     1.9      10     5.0   799.30   -2.96   164.30  
 294   16:20    0.099     999.000     58.4     26     1.7      26     4.9   799.40   -2.96   164.40  
 294   16:30    0.090     999.000     57.6     27     1.9     113     4.4   799.40   -2.96   164.40  
 294   16:40    0.029     999.000     56.3     29     0.9     156     4.7   799.40   -2.96   164.60  
 294   16:50    0.022     999.000     55.3     27     2.2     113     7.3   799.50   -2.96   164.70  
 294   17:00    0.019     999.000     54.5     28     1.2      88     3.4   799.60   -2.96   164.70  
 294   17:10    0.010     999.000     53.5     28     1.9     113     4.6   799.60   -2.96   164.80  
 294   17:20    0.005     999.000     52.8     28     1.9     146     6.0   799.60   -2.96   164.80  
 294   17:30    0.001     999.000     52.4     28     2.8     139     9.8   799.60   -2.96   164.80  
 294   17:40    0.000     999.000     51.8     30     2.6     167     6.2   799.60   -2.96   164.80  
 294   17:50    0.000     999.000     51.7     31     2.9     129     7.4   799.60   -2.96   164.80  
 294   18:00    0.000     999.000     51.6     32     3.3     151    10.5   799.50   -2.96   164.80  
 294   18:10    0.000     999.000     51.2     32     3.4     161     8.2   799.60   -2.96   164.80  
 294   18:20    0.000     999.000     50.8     33     2.6     156     5.8   799.70   -2.96   164.80  
 294   18:30    0.000     999.000     50.4     34     2.8     147     8.4   799.90   -2.96   164.80  
 294   18:40    0.000     999.000     50.6     33     3.8     155     9.2   800.00   -2.96   164.80  
 294   18:50    0.000     999.000     50.5     33     3.3     154     9.1   800.10   -2.96   164.80  
 294   19:00    0.000     999.000     50.7     33     3.2      89    10.9   800.20   -2.96   164.80  
 294   19:10    0.000     999.000     50.9     33     3.4      56     9.4   800.20   -2.96   164.80  
 294   19:20    0.000     999.000     50.6     34     3.4      68     9.4   800.30   -2.96   164.80  
 294   19:30    0.000     999.000     50.3     34     3.1      62     8.7   800.40   -2.96   164.80  
 294   19:40    0.000     999.000     50.0     35     2.8     108     8.6   800.40   -2.96   164.80  
 294   19:50    0.000     999.000     49.7     36     3.6      97     9.3   800.40   -2.96   164.80  
 294   20:00    0.000     999.000     49.6     35     3.2      83     8.3   800.30   -2.96   164.80  
 294   20:10    0.000     999.000     49.7     35     3.1      49     9.1   800.40   -2.96   164.80  
 294   20:20    0.000     999.000     49.1     37     2.0      43     6.8   800.50   -2.96   164.80  
 294   20:30    0.000     999.000     48.9     37     2.8      32     5.9   800.40   -2.96   164.80  
 294   20:40    0.000     999.000     48.7     38     3.3      36     8.1   800.40   -2.96   164.80  
 294   20:50    0.000     999.000     48.4     38     3.3      32     8.2   800.50   -2.96   164.80  
 294   21:00    0.000     999.000     47.9     39     3.2      24     7.4   800.60   -2.96   164.80  
 294   21:10    0.000     999.000     47.5     39     3.6      36     7.4   800.70   -2.96   164.80  
 294   21:20    0.000     999.000     47.4     39     3.5      38    10.0   800.70   -2.96   164.80  
 294   21:30    0.000     999.000     46.7     40     2.8      67     5.4   800.80   -2.96   164.80  
 294   21:40    0.000     999.000     46.5     41     3.1      88     5.8   800.90   -2.96   164.80  
 294   21:50    0.000     999.000     46.2     41     2.6      99     4.6   801.00   -2.96   164.80  
 294   22:00    0.000     999.000     46.4     40     4.3     107     7.7   801.00   -2.96   164.80  
 294   22:10    0.000     999.000     46.0     40     2.8      79     4.7   801.00   -2.96   164.80  
 294   22:20    0.000     999.000     45.0     42     2.4      53     6.0   801.10   -2.96   164.90  
 294   22:30    0.000     999.000     45.9     40     2.9      57     6.5   801.10   -2.96   164.80  
 294   22:40    0.000     999.000     45.6     41     3.2      54     6.2   801.00   -2.96   164.80  
 294   22:50    0.000     999.000     44.7     43     3.4      42     6.4   800.90   -2.96   164.90  
 294   23:00    0.000     999.000     43.0     47     3.5      23     5.4   800.90   -2.96   164.90  
 294   23:10    0.000     999.000     41.6     51     2.2      70     3.6   801.00   -2.96   164.90  
 294   23:20    0.000     999.000     41.7     50     2.5      35     4.2   800.90   -2.96   164.90  
 294   23:30    0.000     999.000     41.2     51     4.1      32     7.7   800.90   -2.96   164.90  
 294   23:40    0.000     999.000     40.5     53     3.4      35     5.8   800.80   -2.96   164.90  
 294   23:50    0.000     999.000     39.9     54     2.1      32     4.7   800.90   -2.96   164.90  
 295    0:00    0.000     999.000     39.3     54     2.4      18     3.7   800.80   -2.96   164.90  
 295    0:10    0.000     999.000     38.7     55     2.5      29     3.5   800.80   -2.96   164.90  
 295    0:20    0.000     999.000     38.4     56     2.6      26     3.4   800.80   -2.96   164.90  
 295    0:30    0.000     999.000     38.1     56     3.1      28     4.6   800.80   -2.96   164.90  
 295    0:40    0.000     999.000     38.1     55     2.4      30     3.9   800.80   -2.96   164.90  
 295    0:50    0.000     999.000     37.8     57     2.8      27     4.1   800.70   -2.96   165.00  
 295    1:00    0.000     999.000     37.6     57     2.8      24     3.8   800.70   -2.96   164.90  
 295    1:10    0.000     999.000     37.6     57     2.3      27     3.4   800.70   -2.96   165.00  
 295    1:20    0.000     999.000     37.5     57     2.6      27     3.9   800.70   -2.96   164.90  
 295    1:30    0.000     999.000     37.5     56     2.6      32     4.0   800.70   -2.96   164.90  
 295    1:40    0.000     999.000     37.5     55     2.0      35     4.0   800.70   -2.96   165.00  
 295    1:50    0.000     999.000     37.3     55     3.6      29     4.5   800.70   -2.96   165.00  
 295    2:00    0.000     999.000     36.9     56     2.4      33     4.9   800.70   -2.96   165.00  
 295    2:10    0.000     999.000     36.6     57     1.9      40     4.1   800.50   -2.96   165.10  
 295    2:20    0.000     999.000     36.1     58     2.5      34     4.3   800.50   -2.96   165.10  
 295    2:30    0.000     999.000     36.1     58     2.2      36     3.6   800.40   -2.96   165.10  
 295    2:40    0.000     999.000     35.6     58     1.9      37     2.9   800.40   -2.96   165.10  
 295    2:50    0.000     999.000     35.4     59     2.0      36     3.2   800.40   -2.96   165.10  
 295    3:00    0.000     999.000     35.4     60     1.8      36     2.7   800.30   -2.96   165.10  
 295    3:10    0.000     999.000     35.5     59     2.1      34     4.2   800.30   -2.96   165.10  
 295    3:20    0.000     999.000     35.4     59     2.2      34     3.6   800.30   -2.96   165.10  
 295    3:30    0.000     999.000     35.2     60     1.9      38     3.6   800.30   -2.96   165.10  
 295    3:40    0.000     999.000     35.0     61     3.3      31     3.9   800.30   -2.96   165.10  
 295    3:50    0.000     999.000     34.7     62     2.1      37     3.2   800.30   -2.96   165.10  
 295    4:00    0.000     999.000     34.4     63     2.2      38     3.3   800.30   -2.96   165.10  
 295    4:10    0.000     999.000     34.5     63     2.1      42     4.5   800.30   -2.96   165.10  
 295    4:20    0.000     999.000     34.6     63     2.5      33     3.9   800.30   -2.96   165.10  
 295    4:30    0.000     999.000     34.6     63     2.1      42     5.6   800.30   -2.96   165.10  
 295    4:40    0.000     999.000     34.8     62     3.0      31     4.6   800.40   -2.96   165.10  
 295    4:50    0.000     999.000     34.5     63     2.0      40     4.0   800.40   -2.96   165.10  
 295    5:00    0.000     999.000     34.7     64     2.1      40     5.0   800.50   -2.96   165.10  
 295    5:10    0.000     999.000     34.9     64     1.7      48     2.5   800.50   -2.96   165.10  

Return to Central Sierra Snow Lab graphs page.


Western Regional Climate Center,wrcc@dri.edu